Time;durP1;ratioP1;P1;durP2;ratioP2;P2;SDS_P1;SDS_P2;PMS_P1;PMS_P2;Temp;Humidity;BMP_temperature;BMP_pressure;BME280_temperature;BME280_humidity;BME280_pressure;Samples;Min_cycle;Max_cycle;Signal;HPM_P1;HPM_P2
2022/09/03 00:00:24;;;;;;;6.43;5.20;;;14.60;99.90;;;;;;4994828;28;20293;-75
2022/09/03 00:03:07;;;;;;;5.37;4.87;;;14.60;99.90;;;;;;5011604;28;20242;-75
2022/09/03 00:05:50;;;;;;;4.57;4.33;;;14.50;99.90;;;;;;5027845;28;20220;-75
2022/09/03 00:08:44;;;;;;;6.03;5.53;;;14.30;99.90;;;;;;5014870;28;20183;-75
2022/09/03 00:11:34;;;;;;;5.07;4.70;;;14.30;99.90;;;;;;5033129;28;20226;-75
2022/09/03 00:14:11;;;;;;;6.67;6.27;;;14.30;99.90;;;;;;5015806;28;20179;-75
2022/09/03 00:17:02;;;;;;;6.20;5.20;;;14.40;99.90;;;;;;5049840;28;20228;-73
2022/09/03 00:19:35;;;;;;;4.60;4.30;;;14.50;99.90;;;;;;5052825;28;20229;-74
2022/09/03 00:22:16;;;;;;;5.10;4.70;;;14.60;99.90;;;;;;5052988;28;20210;-76
2022/09/03 00:24:44;;;;;;;5.43;4.97;;;14.70;99.90;;;;;;5035384;28;20533;-75
2022/09/03 00:27:23;;;;;;;6.10;5.80;;;14.70;99.90;;;;;;5052637;28;20179;-75
2022/09/03 00:29:55;;;;;;;5.50;5.20;;;14.70;99.90;;;;;;5052443;28;20201;-77
2022/09/03 00:32:36;;;;;;;6.33;6.03;;;14.60;99.90;;;;;;5051847;28;20179;-77
2022/09/03 00:35:08;;;;;;;6.77;6.47;;;14.60;99.90;;;;;;5052200;28;20210;-77
2022/09/03 00:37:34;;;;;;;7.30;6.90;;;14.60;99.90;;;;;;5034285;28;20193;-77
2022/09/03 00:40:01;;;;;;;6.63;5.93;;;14.70;99.90;;;;;;5052719;28;20206;-77
2022/09/03 00:42:43;;;;;;;4.53;4.33;;;14.70;99.90;;;;;;5034922;28;20210;-77
2022/09/03 00:45:21;;;;;;;6.03;5.63;;;14.70;99.90;;;;;;5052757;28;20174;-77
2022/09/03 00:48:08;;;;;;;7.23;6.80;;;14.70;99.90;;;;;;5051531;28;20239;-78
2022/09/03 00:50:42;;;;;;;16.30;15.43;;;14.80;99.90;;;;;;5052871;28;20285;-77
2022/09/03 00:53:21;;;;;;;31.03;29.60;;;14.90;99.90;;;;;;5053032;28;20212;-77
2022/09/03 00:56:14;;;;;;;36.10;34.23;;;15.00;99.90;;;;;;5052786;28;20680;-77
2022/09/03 00:59:20;;;;;;;35.83;34.03;;;15.00;99.90;;;;;;5051371;28;20183;-77
2022/09/03 01:02:27;;;;;;;33.73;32.07;;;15.00;99.90;;;;;;5038282;28;20213;-77
2022/09/03 01:05:15;;;;;;;33.83;32.23;;;15.00;99.90;;;;;;5034403;28;20178;-77
2022/09/03 01:07:57;;;;;;;37.73;35.87;;;15.00;99.90;;;;;;5033020;28;20189;-78
2022/09/03 01:10:31;;;;;;;43.53;41.33;;;15.20;99.90;;;;;;5051923;28;20717;-77
2022/09/03 01:13:08;;;;;;;40.23;38.23;;;15.10;99.90;;;;;;5034505;28;20558;-78
2022/09/03 01:15:57;;;;;;;39.03;37.13;;;15.20;99.90;;;;;;5033608;28;20666;-78
2022/09/03 01:18:32;;;;;;;35.40;33.07;;;15.20;99.90;;;;;;5051279;28;20194;-78
2022/09/03 01:21:40;;;;;;;30.27;28.23;;;15.30;99.90;;;;;;5034067;28;20213;-77
2022/09/03 01:24:18;;;;;;;24.43;23.27;;;15.40;99.90;;;;;;4954959;28;20213;-77
2022/09/03 01:26:55;;;;;;;24.73;23.53;;;15.40;99.90;;;;;;4970621;28;20192;-77
2022/09/03 01:29:38;;;;;;;22.50;21.23;;;15.50;99.90;;;;;;5022803;28;20305;-78
2022/09/03 01:32:04;;;;;;;15.50;14.80;;;15.50;99.90;;;;;;5033915;28;20244;-77
2022/09/03 01:34:40;;;;;;;18.03;17.17;;;15.40;99.90;;;;;;5034132;28;20178;-78
2022/09/03 01:37:27;;;;;;;10.30;9.70;;;15.40;99.90;;;;;;5050759;28;20192;-78
2022/09/03 01:40:02;;;;;;;9.67;9.27;;;15.50;99.90;;;;;;5051118;28;20286;-77
2022/09/03 01:42:47;;;;;;;9.33;8.73;;;15.60;99.90;;;;;;5051363;28;20252;-76
2022/09/03 01:45:26;;;;;;;7.80;7.50;;;15.60;99.90;;;;;;5014465;28;20175;-77
2022/09/03 01:48:01;;;;;;;6.87;6.57;;;15.60;99.90;;;;;;5031184;28;20179;-78
2022/09/03 01:50:46;;;;;;;6.37;6.07;;;15.60;99.90;;;;;;5031832;28;20698;-77
2022/09/03 01:53:35;;;;;;;6.57;6.07;;;15.70;99.90;;;;;;5032035;28;20174;-77
2022/09/03 01:56:16;;;;;;;7.93;7.13;;;15.70;99.90;;;;;;5031712;28;20183;-78
2022/09/03 01:58:50;;;;;;;5.90;5.70;;;15.80;99.90;;;;;;5032604;28;20253;-77
2022/09/03 02:01:25;;;;;;;5.93;5.50;;;15.80;99.90;;;;;;5050826;28;20212;-77
2022/09/03 02:03:56;;;;;;;6.43;5.93;;;15.90;99.90;;;;;;5051304;28;20182;-77
2022/09/03 02:06:22;;;;;;;7.73;7.27;;;15.90;99.90;;;;;;5051336;28;20524;-78
2022/09/03 02:08:48;;;;;;;7.40;6.97;;;15.90;99.90;;;;;;5050341;28;20273;-78
2022/09/03 02:11:14;;;;;;;6.57;6.23;;;15.90;99.90;;;;;;5051099;28;20238;-77
2022/09/03 02:13:47;;;;;;;5.87;5.57;;;15.90;99.90;;;;;;5033358;28;20178;-78
2022/09/03 02:16:17;;;;;;;6.63;6.27;;;16.00;99.90;;;;;;5033578;28;20190;-77
2022/09/03 02:18:50;;;;;;;6.60;6.30;;;16.00;99.90;;;;;;5050292;28;20179;-77
2022/09/03 02:21:20;;;;;;;6.97;6.67;;;16.00;99.90;;;;;;5050988;28;20580;-77
2022/09/03 02:23:48;;;;;;;6.90;6.60;;;16.00;99.90;;;;;;5032695;28;20186;-77
2022/09/03 02:26:18;;;;;;;7.27;6.77;;;16.00;99.90;;;;;;5033113;28;20543;-77
2022/09/03 02:28:44;;;;;;;6.53;6.17;;;16.00;99.90;;;;;;5032474;28;20218;-77
2022/09/03 02:31:10;;;;;;;7.73;7.43;;;16.00;99.90;;;;;;5051026;28;20283;-78
2022/09/03 02:33:39;;;;;;;9.67;8.83;;;16.00;99.90;;;;;;5032961;28;20190;-76
2022/09/03 02:36:10;;;;;;;12.60;11.93;;;16.00;99.90;;;;;;5051012;28;20182;-77
2022/09/03 02:38:37;;;;;;;13.80;12.90;;;16.00;99.90;;;;;;5050058;28;20182;-78
2022/09/03 02:41:03;;;;;;;12.40;11.80;;;16.00;99.90;;;;;;5033038;28;20299;-76
2022/09/03 02:43:44;;;;;;;13.27;12.67;;;16.10;99.90;;;;;;5032852;28;20600;-78
2022/09/03 02:46:17;;;;;;;5.33;5.13;;;16.20;99.90;;;;;;5050290;28;20538;-77
2022/09/03 02:48:42;;;;;;;5.07;4.77;;;16.20;99.90;;;;;;5050046;28;20178;-77
2022/09/03 02:51:08;;;;;;;5.67;5.37;;;16.20;99.90;;;;;;5033009;28;20705;-77
2022/09/03 02:53:34;;;;;;;7.50;6.90;;;16.20;99.90;;;;;;5050509;28;20193;-77
2022/09/03 02:56:01;;;;;;;5.90;5.50;;;16.30;99.90;;;;;;5050756;28;20210;-78
2022/09/03 02:58:28;;;;;;;6.00;5.80;;;16.30;99.90;;;;;;5049857;28;20189;-77
2022/09/03 03:00:54;;;;;;;13.13;12.20;;;16.20;99.90;;;;;;5032850;28;20248;-79
2022/09/03 03:03:20;;;;;;;17.23;16.33;;;16.20;99.90;;;;;;5032728;28;20186;-77
2022/09/03 03:05:52;;;;;;;11.80;11.27;;;16.10;99.90;;;;;;5050729;28;20175;-78
2022/09/03 03:08:23;;;;;;;7.07;6.60;;;16.10;99.90;;;;;;5049937;28;20235;-78
2022/09/03 03:10:52;;;;;;;6.30;5.90;;;16.00;99.90;;;;;;5032893;28;20228;-78
2022/09/03 03:13:18;;;;;;;6.67;6.13;;;15.90;99.90;;;;;;5050586;28;20592;-78
2022/09/03 03:15:46;;;;;;;8.37;7.77;;;15.80;99.90;;;;;;5050680;28;20179;-77
2022/09/03 03:18:12;;;;;;;16.27;15.27;;;15.80;99.90;;;;;;5049672;28;20182;-78
2022/09/03 03:20:39;;;;;;;21.77;20.73;;;15.70;99.90;;;;;;5032657;28;20549;-76
2022/09/03 03:23:05;;;;;;;26.80;25.37;;;15.70;99.90;;;;;;5032048;28;20195;-78
2022/09/03 03:25:33;;;;;;;32.00;29.73;;;15.60;99.90;;;;;;5050358;28;20179;-77
2022/09/03 03:27:59;;;;;;;12.43;11.83;;;15.60;99.90;;;;;;5049584;28;20181;-77
2022/09/03 03:30:26;;;;;;;25.97;24.57;;;15.60;99.90;;;;;;5032548;28;20201;-77
2022/09/03 03:32:53;;;;;;;30.27;28.70;;;15.70;99.90;;;;;;5035929;28;20175;-77
2022/09/03 03:35:19;;;;;;;30.50;29.03;;;15.70;99.90;;;;;;5053969;28;20720;-78
2022/09/03 03:37:45;;;;;;;19.93;17.97;;;15.70;99.90;;;;;;5053241;28;20269;-78
2022/09/03 03:40:12;;;;;;;30.90;29.37;;;15.60;99.90;;;;;;5054041;28;20293;-78
2022/09/03 03:42:40;;;;;;;34.53;32.90;;;15.60;99.90;;;;;;5036505;28;20233;-78
2022/09/03 03:45:06;;;;;;;5.77;5.57;;;15.60;99.90;;;;;;5053947;28;20178;-77
2022/09/03 03:47:33;;;;;;;8.20;7.70;;;15.50;99.90;;;;;;5035301;28;20206;-77
2022/09/03 03:49:59;;;;;;;12.30;11.37;;;15.60;99.90;;;;;;5053536;28;20202;-77
2022/09/03 03:52:26;;;;;;;11.73;11.10;;;15.70;99.90;;;;;;5053454;28;20186;-77
2022/09/03 03:54:52;;;;;;;11.93;11.33;;;15.70;99.90;;;;;;5036130;28;20228;-76
2022/09/03 03:57:20;;;;;;;11.37;10.67;;;15.70;99.90;;;;;;5052789;28;20232;-77
2022/09/03 03:59:47;;;;;;;11.40;10.33;;;15.80;99.90;;;;;;5053435;28;20612;-76
2022/09/03 04:02:13;;;;;;;10.60;10.10;;;15.70;99.90;;;;;;5035672;28;20210;-77
2022/09/03 04:04:40;;;;;;;7.33;6.93;;;15.80;99.90;;;;;;5049062;28;20635;-76
2022/09/03 04:07:06;;;;;;;6.33;6.03;;;15.90;99.90;;;;;;5019826;28;20237;-77
2022/09/03 04:09:33;;;;;;;4.60;4.20;;;15.90;99.90;;;;;;5033101;28;20198;-76
2022/09/03 04:11:59;;;;;;;5.17;4.50;;;16.00;99.90;;;;;;5015436;28;20187;-76
2022/09/03 04:14:26;;;;;;;5.00;4.70;;;16.00;99.90;;;;;;5050739;28;20232;-76
2022/09/03 04:16:53;;;;;;;4.97;4.77;;;16.10;99.90;;;;;;5045047;28;20183;-77
2022/09/03 04:19:19;;;;;;;5.33;4.97;;;16.10;99.90;;;;;;5030959;28;20187;-76
2022/09/03 04:21:45;;;;;;;5.50;5.10;;;16.20;99.90;;;;;;5032683;28;20222;-77
2022/09/03 04:24:12;;;;;;;6.47;5.97;;;16.20;99.90;;;;;;5033837;28;20186;-77
2022/09/03 04:26:39;;;;;;;5.90;5.60;;;16.20;99.90;;;;;;5051921;28;20178;-78
2022/09/03 04:29:09;;;;;;;6.43;5.93;;;16.20;99.90;;;;;;5052208;28;20175;-78
2022/09/03 04:31:37;;;;;;;6.90;6.23;;;16.30;99.90;;;;;;5051463;28;20197;-78
2022/09/03 04:34:08;;;;;;;6.57;6.20;;;16.30;99.90;;;;;;5034651;28;20678;-77
2022/09/03 04:36:34;;;;;;;6.60;6.10;;;16.30;99.90;;;;;;5052406;28;20186;-77
2022/09/03 04:39:00;;;;;;;5.90;5.60;;;16.30;99.90;;;;;;5050736;28;20805;-77
2022/09/03 04:41:28;;;;;;;6.13;5.47;;;16.40;99.90;;;;;;5034247;28;20704;-77
2022/09/03 04:43:56;;;;;;;5.60;5.20;;;16.40;99.90;;;;;;5051583;28;20635;-77
2022/09/03 04:46:25;;;;;;;5.40;4.63;;;16.40;99.90;;;;;;5051141;28;20181;-77
2022/09/03 04:48:52;;;;;;;5.50;4.37;;;16.50;99.90;;;;;;5033586;28;20273;-77
2022/09/03 04:51:24;;;;;;;4.37;4.17;;;16.50;99.90;;;;;;5052073;28;20203;-77
2022/09/03 04:53:58;;;;;;;5.43;4.37;;;16.50;99.90;;;;;;5032849;28;20212;-78
2022/09/03 04:56:30;;;;;;;4.83;4.47;;;16.50;99.90;;;;;;5052328;28;20186;-77
2022/09/03 04:58:58;;;;;;;4.63;4.33;;;16.50;99.90;;;;;;5033426;28;20178;-77
2022/09/03 05:01:27;;;;;;;4.90;4.50;;;16.50;99.90;;;;;;5051210;28;20593;-76
2022/09/03 05:03:54;;;;;;;5.07;4.43;;;16.50;99.90;;;;;;5051237;28;20179;-77
2022/09/03 05:06:20;;;;;;;4.37;4.17;;;16.50;99.90;;;;;;5052026;28;20174;-76
2022/09/03 05:08:50;;;;;;;4.87;4.53;;;16.60;99.90;;;;;;5032630;28;20734;-77
2022/09/03 05:11:17;;;;;;;4.70;4.50;;;16.60;99.90;;;;;;5050686;28;20245;-77
2022/09/03 05:13:47;;;;;;;4.73;4.33;;;16.70;99.90;;;;;;5050598;28;20179;-77
2022/09/03 05:16:14;;;;;;;4.93;4.53;;;16.70;99.90;;;;;;5050747;28;20181;-77
2022/09/03 05:18:41;;;;;;;4.50;4.30;;;16.70;99.90;;;;;;5032058;28;20218;-77
2022/09/03 05:21:09;;;;;;;5.07;4.33;;;16.70;99.90;;;;;;5051553;28;20209;-77
2022/09/03 05:23:38;;;;;;;4.40;4.20;;;16.70;99.90;;;;;;5050651;28;20557;-79
2022/09/03 05:26:09;;;;;;;5.40;5.00;;;16.70;99.90;;;;;;5033828;28;20220;-77
2022/09/03 05:28:36;;;;;;;5.77;5.37;;;16.80;99.90;;;;;;5033616;28;20670;-77
2022/09/03 05:31:05;;;;;;;5.07;4.80;;;16.80;99.90;;;;;;5050250;28;20202;-78
2022/09/03 05:33:44;;;;;;;5.20;4.20;;;16.80;99.90;;;;;;5051113;28;20217;-77
2022/09/03 05:36:15;;;;;;;4.37;4.07;;;16.70;99.90;;;;;;5051797;28;20555;-78
2022/09/03 05:38:41;;;;;;;4.93;4.63;;;16.70;99.90;;;;;;5049775;28;20557;-77
2022/09/03 05:41:09;;;;;;;5.30;5.00;;;16.70;99.90;;;;;;5033683;28;20216;-77
2022/09/03 05:43:36;;;;;;;5.00;4.50;;;16.70;99.90;;;;;;5032936;28;20228;-68
2022/09/03 05:46:05;;;;;;;4.73;4.33;;;16.80;99.90;;;;;;5043356;28;20179;-70
2022/09/03 05:48:35;;;;;;;5.40;4.37;;;16.90;99.90;;;;;;5030865;28;20175;-68
2022/09/03 05:51:03;;;;;;;6.33;5.83;;;17.10;99.90;;;;;;5051236;28;20202;-69
2022/09/03 05:53:32;;;;;;;12.63;12.03;;;17.20;99.90;;;;;;5050394;28;20734;-68
2022/09/03 05:56:00;;;;;;;26.43;24.93;;;17.40;99.90;;;;;;5051821;28;20179;-69
2022/09/03 05:58:33;;;;;;;40.10;37.97;;;17.40;99.90;;;;;;5049889;28;20209;-68
2022/09/03 06:01:08;;;;;;;47.50;44.80;;;17.50;99.90;;;;;;5050097;28;20212;-69
2022/09/03 06:03:34;;;;;;;53.23;50.63;;;17.50;99.90;;;;;;5051089;28;20192;-68
2022/09/03 06:06:00;;;;;;;60.83;57.87;;;17.60;99.90;;;;;;5051227;28;20180;-68
2022/09/03 06:08:26;;;;;;;66.03;62.77;;;17.60;99.90;;;;;;5049138;28;20273;-68
2022/09/03 06:10:57;;;;;;;78.93;75.10;;;17.70;99.90;;;;;;5032826;28;20276;-68
2022/09/03 06:13:23;;;;;;;73.23;69.73;;;17.80;99.90;;;;;;5050896;28;20178;-68
2022/09/03 06:15:49;;;;;;;72.33;68.63;;;17.90;99.90;;;;;;5050116;28;20635;-69
2022/09/03 06:18:15;;;;;;;64.30;61.00;;;18.00;99.90;;;;;;5031638;28;20170;-69
2022/09/03 06:20:41;;;;;;;53.60;50.90;;;18.20;99.90;;;;;;5050942;28;20237;-68
2022/09/03 06:23:07;;;;;;;47.87;45.53;;;18.20;99.90;;;;;;5050233;28;20233;-69
2022/09/03 06:25:33;;;;;;;54.03;51.40;;;18.20;99.90;;;;;;5051153;28;20177;-69
2022/09/03 06:28:01;;;;;;;51.00;47.67;;;18.10;99.90;;;;;;5051447;28;20269;-69
2022/09/03 06:30:26;;;;;;;47.20;44.90;;;18.10;99.90;;;;;;5049613;28;20249;-69
2022/09/03 06:32:53;;;;;;;50.00;47.43;;;18.10;99.90;;;;;;5050617;28;20182;-69
2022/09/03 06:35:19;;;;;;;52.30;48.93;;;18.10;99.90;;;;;;5050763;28;20192;-69
2022/09/03 06:37:45;;;;;;;54.77;52.13;;;18.20;99.90;;;;;;5030615;28;20182;-69
2022/09/03 06:40:12;;;;;;;54.53;51.90;;;18.10;99.90;;;;;;5050935;28;20665;-72
2022/09/03 06:42:40;;;;;;;66.67;63.13;;;18.10;99.90;;;;;;5050554;28;20301;-72
2022/09/03 06:45:07;;;;;;;80.27;76.33;;;18.00;99.90;;;;;;5029396;28;20178;-72
2022/09/03 06:47:34;;;;;;;81.47;77.50;;;17.90;99.90;;;;;;5033433;28;20182;-72
2022/09/03 06:50:00;;;;;;;50.17;47.63;;;17.80;99.90;;;;;;5049377;28;20229;-72
2022/09/03 06:52:27;;;;;;;36.20;34.20;;;17.70;99.90;;;;;;5050659;28;20190;-72
2022/09/03 06:54:53;;;;;;;30.40;28.70;;;17.80;99.90;;;;;;5050381;28;20197;-72
2022/09/03 06:57:19;;;;;;;29.57;28.10;;;17.80;99.90;;;;;;5049838;28;20186;-72
2022/09/03 06:59:45;;;;;;;14.30;13.50;;;17.90;99.90;;;;;;5050193;28;20217;-72
2022/09/03 07:02:11;;;;;;;12.33;11.43;;;17.90;99.90;;;;;;5032837;28;20271;-72
2022/09/03 07:04:37;;;;;;;7.83;7.43;;;17.90;99.90;;;;;;5033580;28;20174;-72
2022/09/03 07:07:03;;;;;;;8.13;7.57;;;17.90;99.90;;;;;;5035901;28;20611;-72
2022/09/03 07:09:30;;;;;;;13.13;12.43;;;18.00;99.90;;;;;;5053844;28;20209;-73
2022/09/03 07:11:56;;;;;;;22.10;20.90;;;18.20;99.90;;;;;;5036636;28;20190;-72
2022/09/03 07:14:23;;;;;;;21.83;20.70;;;18.40;99.90;;;;;;5054528;28;20175;-72
2022/09/03 07:16:49;;;;;;;15.13;13.47;;;18.30;99.90;;;;;;5053720;28;20194;-72
2022/09/03 07:19:16;;;;;;;19.47;18.37;;;18.30;99.90;;;;;;5054629;28;20236;-72
2022/09/03 07:21:42;;;;;;;14.67;13.77;;;18.30;99.90;;;;;;5054980;28;20571;-72
2022/09/03 07:24:08;;;;;;;11.53;10.90;;;18.30;99.90;;;;;;5036722;28;20212;-72
2022/09/03 07:26:37;;;;;;;11.43;10.73;;;18.40;99.90;;;;;;5054279;28;20200;-72
2022/09/03 07:29:06;;;;;;;12.63;11.90;;;18.40;99.90;;;;;;5053199;28;20610;-71
2022/09/03 07:31:37;;;;;;;15.97;15.20;;;18.50;99.90;;;;;;5031009;28;20651;-73
2022/09/03 07:34:05;;;;;;;20.43;19.37;;;18.60;99.90;;;;;;5026452;28;20282;-72
2022/09/03 07:36:37;;;;;;;29.83;28.33;;;18.70;99.90;;;;;;5033755;28;20244;-71
2022/09/03 07:39:04;;;;;;;26.07;24.63;;;18.80;99.90;;;;;;5047252;28;20185;-72
2022/09/03 07:41:31;;;;;;;32.67;31.03;;;18.80;99.90;;;;;;5053124;28;20256;-72
2022/09/03 07:43:59;;;;;;;39.20;37.10;;;18.90;99.90;;;;;;5053781;28;20185;-72
2022/09/03 07:46:26;;;;;;;41.73;39.33;;;19.00;99.90;;;;;;5035132;28;20515;-72
2022/09/03 07:48:54;;;;;;;57.43;54.43;;;19.10;99.90;;;;;;5048734;28;20269;-70
2022/09/03 07:51:25;;;;;;;62.00;58.57;;;19.20;99.90;;;;;;5053491;28;20289;-68
2022/09/03 07:53:56;;;;;;;61.77;58.63;;;19.30;99.90;;;;;;5034568;28;20686;-68
2022/09/03 07:56:23;;;;;;;49.40;46.90;;;19.40;99.90;;;;;;5053090;28;20205;-69
2022/09/03 07:58:50;;;;;;;40.13;38.17;;;19.60;99.90;;;;;;5027391;28;20187;-70
2022/09/03 08:01:19;;;;;;;52.87;50.27;;;19.60;99.90;;;;;;5031974;28;20222;-70
2022/09/03 08:03:48;;;;;;;51.83;49.33;;;19.50;99.90;;;;;;5053052;28;20214;-71
2022/09/03 08:06:17;;;;;;;32.90;31.30;;;19.70;99.90;;;;;;5052327;28;20539;-71
2022/09/03 08:08:45;;;;;;;28.03;26.47;;;20.00;99.90;;;;;;5034365;28;20244;-69
2022/09/03 08:11:17;;;;;;;36.87;34.97;;;20.10;99.90;;;;;;5034463;28;20217;-70
2022/09/03 08:13:48;;;;;;;38.30;36.37;;;20.20;99.90;;;;;;5035471;28;20190;-71
2022/09/03 08:16:17;;;;;;;33.80;32.20;;;20.30;99.90;;;;;;5054090;28;20190;-71
2022/09/03 08:18:43;;;;;;;28.67;27.13;;;20.60;99.90;;;;;;5044062;28;20182;-72
2022/09/03 08:21:14;;;;;;;22.23;20.88;;;20.70;99.90;;;;;;5033134;28;20261;-72
2022/09/03 08:23:43;;;;;;;15.30;14.50;;;21.00;99.90;;;;;;5031850;28;20187;-72
2022/09/03 08:26:10;;;;;;;14.68;13.80;;;21.40;99.90;;;;;;5032957;28;20179;-71
2022/09/03 08:28:37;;;;;;;15.50;14.80;;;21.30;99.90;;;;;;5042721;28;20217;-72
2022/09/03 08:31:14;;;;;;;35.88;33.97;;;21.40;99.90;;;;;;5052680;28;20201;-71
2022/09/03 08:33:43;;;;;;;53.30;50.65;;;21.40;99.90;;;;;;5052090;28;20256;-72
2022/09/03 08:36:12;;;;;;;38.67;36.47;;;21.50;99.90;;;;;;5034465;28;20178;-72
2022/09/03 08:38:41;;;;;;;60.25;57.13;;;21.60;99.90;;;;;;5051738;28;20604;-71
2022/09/03 08:41:16;;;;;;;36.25;34.47;;;21.90;99.90;;;;;;5052595;28;20708;-71
2022/09/03 08:43:45;;;;;;;7.32;6.93;;;22.30;99.90;;;;;;5052300;28;20256;-72
2022/09/03 08:46:11;;;;;;;13.52;12.75;;;22.60;99.90;;;;;;5034997;28;20185;-72
2022/09/03 08:48:37;;;;;;;75.30;71.70;;;23.10;99.90;;;;;;5051471;28;20187;-69
2022/09/03 08:51:05;;;;;;;89.78;85.47;;;23.50;99.90;;;;;;5051678;28;20202;-71
2022/09/03 08:53:49;;;;;;;59.97;56.95;;;23.70;99.90;;;;;;5050923;28;20220;-74
2022/09/03 08:56:27;;;;;;;55.22;52.33;;;23.60;99.90;;;;;;5033577;28;20185;-70
2022/09/03 08:58:54;;;;;;;95.07;90.40;;;23.40;99.90;;;;;;5049729;28;20410;-72
2022/09/03 09:01:57;;;;;;;74.78;71.00;;;23.10;99.90;;;;;;5050987;28;20576;-71
2022/09/03 09:04:55;;;;;;;75.85;72.15;;;23.10;99.90;;;;;;5051465;28;20184;-71
2022/09/03 09:07:44;;;;;;;79.85;75.72;;;23.20;99.90;;;;;;5033912;28;20178;-71
2022/09/03 09:10:28;;;;;;;99.00;94.20;;;23.10;99.90;;;;;;5032441;28;20199;-72
2022/09/03 09:12:54;;;;;;;80.45;76.10;;;23.30;99.90;;;;;;5032461;28;20195;-70
2022/09/03 09:15:39;;;;;;;61.85;58.85;;;23.60;99.90;;;;;;5032454;28;20183;-71
2022/09/03 09:18:17;;;;;;;21.75;20.75;;;24.30;99.90;;;;;;5019286;28;20185;-71
2022/09/03 09:20:55;;;;;;;17.67;16.77;;;25.10;99.90;;;;;;5052323;28;20198;-71
2022/09/03 09:23:38;;;;;;;5.00;4.78;;;26.20;99.90;;;;;;5052364;28;20205;-70
2022/09/03 09:26:10;;;;;;;5.57;5.18;;;27.00;99.90;;;;;;5034671;28;20166;-71
2022/09/03 09:28:38;;;;;;;4.30;4.00;;;27.20;99.90;;;;;;5050204;28;20174;-71
2022/09/03 09:31:07;;;;;;;6.10;5.60;;;28.00;99.90;;;;;;5034179;28;20205;-72
2022/09/03 09:33:34;;;;;;;5.85;5.45;;;28.80;98.00;;;;;;5051915;28;20193;-71
2022/09/03 09:36:07;;;;;;;4.20;3.90;;;29.30;96.50;;;;;;5034135;28;20205;-72
2022/09/03 09:38:35;;;;;;;7.90;7.40;;;29.60;94.40;;;;;;5050716;28;20174;-72
2022/09/03 09:41:09;;;;;;;7.28;6.95;;;29.30;93.70;;;;;;5034005;28;20205;-71
2022/09/03 09:43:35;;;;;;;8.30;7.72;;;28.20;94.70;;;;;;5051676;28;20240;-71
2022/09/03 09:46:14;;;;;;;8.57;8.00;;;27.60;95.30;;;;;;5051777;28;20183;-71
2022/09/03 09:48:52;;;;;;;5.25;4.82;;;27.30;95.60;;;;;;5050553;28;20178;-71
2022/09/03 09:51:32;;;;;;;5.13;4.82;;;26.60;96.60;;;;;;5051245;28;20204;-71
2022/09/03 09:54:12;;;;;;;5.13;4.80;;;26.10;97.20;;;;;;5030596;28;20189;-71
2022/09/03 09:56:39;;;;;;;5.05;4.55;;;25.90;97.80;;;;;;5051042;28;20186;-72
2022/09/03 09:59:09;;;;;;;4.85;4.55;;;26.10;97.50;;;;;;5050461;28;20178;-71
2022/09/03 10:01:38;;;;;;;13.63;4.97;;;26.00;98.10;;;;;;5072673;22;20226;-69
2022/09/03 10:04:20;;;;;;;4.75;4.45;;;25.90;98.10;;;;;;5049757;28;20244;-68
2022/09/03 10:06:54;;;;;;;5.10;4.65;;;25.90;97.80;;;;;;5050393;28;20210;-68
2022/09/03 10:09:22;;;;;;;5.53;5.20;;;25.80;98.50;;;;;;5051263;28;20235;-69
2022/09/03 10:12:13;;;;;;;5.20;4.72;;;25.80;98.40;;;;;;5051115;28;20240;-68
2022/09/03 10:14:54;;;;;;;4.47;4.10;;;26.20;98.40;;;;;;5037559;28;20262;-69
2022/09/03 10:17:27;;;;;;;4.70;4.50;;;26.40;97.40;;;;;;5051371;28;20200;-73
2022/09/03 10:22:55;;;;;;;4.35;3.95;;;27.00;97.00;;;;;;5043386;28;20264;-71
2022/09/03 10:25:24;;;;;;;5.25;4.85;;;27.50;96.60;;;;;;5032094;28;20183;-71
2022/09/03 10:27:53;;;;;;;5.38;5.05;;;27.30;96.00;;;;;;5030305;28;20182;-71
2022/09/03 10:30:19;;;;;;;7.65;7.25;;;27.70;95.40;;;;;;5032397;28;20199;-71
2022/09/03 10:33:06;;;;;;;7.85;7.45;;;27.90;94.60;;;;;;5029305;28;20710;-71
2022/09/03 10:35:41;;;;;;;8.45;7.95;;;27.80;94.70;;;;;;5025927;28;20297;-71
2022/09/03 10:38:17;;;;;;;8.20;7.60;;;27.90;95.10;;;;;;5029874;28;20265;-71
2022/09/03 10:41:21;;;;;;;8.13;7.72;;;28.00;94.70;;;;;;5050014;28;20201;-71
2022/09/03 10:44:24;;;;;;;7.45;6.80;;;28.10;94.40;;;;;;5041689;28;20292;-71
2022/09/03 10:47:03;;;;;;;9.68;8.98;;;28.40;94.50;;;;;;5054202;28;20181;-71
2022/09/03 10:49:51;;;;;;;8.52;7.70;;;28.60;93.40;;;;;;5047364;28;20228;-71
2022/09/03 10:52:35;;;;;;;8.55;8.05;;;28.20;93.80;;;;;;5047270;28;20265;-71
2022/09/03 10:55:21;;;;;;;10.32;9.82;;;28.00;93.70;;;;;;5053922;28;20286;-71
2022/09/03 10:58:22;;;;;;;5.97;5.68;;;27.60;93.90;;;;;;5053280;28;20293;-71
2022/09/03 11:00:57;;;;;;;7.75;7.35;;;27.20;95.10;;;;;;5037839;28;20229;-70
2022/09/03 11:03:58;;;;;;;6.25;5.95;;;27.20;95.40;;;;;;5013259;28;20191;-70
2022/09/03 11:06:34;;;;;;;8.00;7.45;;;27.30;95.00;;;;;;4953838;29;20240;-70
2022/09/03 11:09:05;;;;;;;9.60;9.10;;;26.80;94.40;;;;;;5000774;28;20266;-70
2022/09/03 11:11:41;;;;;;;10.63;9.95;;;26.80;95.00;;;;;;5023754;28;20198;-70
2022/09/03 11:14:10;;;;;;;10.10;9.43;;;26.80;95.00;;;;;;5054239;28;20197;-70
2022/09/03 11:16:49;;;;;;;14.02;13.10;;;26.80;94.80;;;;;;5054059;28;20232;-70
2022/09/03 11:19:25;;;;;;;12.15;11.55;;;27.00;95.60;;;;;;5054025;28;20186;-70
2022/09/03 11:21:52;;;;;;;13.80;12.90;;;27.00;95.50;;;;;;5045759;28;20632;-70
2022/09/03 11:24:29;;;;;;;8.60;8.02;;;27.40;95.60;;;;;;5033254;28;20175;-70
2022/09/03 11:26:55;;;;;;;5.78;5.47;;;27.80;94.00;;;;;;5033647;28;20187;-70
2022/09/03 11:29:30;;;;;;;7.45;6.97;;;27.80;93.30;;;;;;5033978;28;20179;-69
2022/09/03 11:32:13;;;;;;;7.78;7.47;;;27.50;93.40;;;;;;5042391;28;20702;-70
2022/09/03 11:34:50;;;;;;;12.68;11.88;;;27.50;93.30;;;;;;5054232;28;20185;-70
2022/09/03 11:37:19;;;;;;;13.80;12.77;;;27.50;95.10;;;;;;5053390;28;20241;-70
2022/09/03 11:40:05;;;;;;;11.80;10.98;;;27.40;94.60;;;;;;5053894;28;20190;-70
2022/09/03 11:42:36;;;;;;;12.98;12.38;;;27.00;94.70;;;;;;5040673;28;20207;-70
2022/09/03 11:45:31;;;;;;;11.80;11.20;;;26.70;95.00;;;;;;5033316;28;20187;-70
2022/09/03 11:47:58;;;;;;;11.98;11.38;;;26.70;95.20;;;;;;5033466;28;20186;-70
2022/09/03 11:50:24;;;;;;;13.07;12.30;;;26.60;95.10;;;;;;5033930;28;20206;-70
2022/09/03 11:53:08;;;;;;;10.82;9.93;;;26.30;95.40;;;;;;5047785;28;20190;-70
2022/09/03 11:55:57;;;;;;;7.28;6.88;;;26.10;96.40;;;;;;5055857;28;20186;-70
2022/09/03 11:58:33;;;;;;;4.07;3.88;;;25.90;95.90;;;;;;5054541;28;20182;-70
2022/09/03 12:01:02;;;;;;;5.18;4.88;;;25.70;96.90;;;;;;5054092;28;20224;-70
2022/09/03 12:03:47;;;;;;;13.13;12.02;;;25.40;97.10;;;;;;5014508;28;20176;-71
2022/09/03 12:06:32;;;;;;;10.32;9.73;;;25.40;98.30;;;;;;5014423;28;20180;-71
2022/09/03 12:09:23;;;;;;;9.55;8.45;;;25.30;98.80;;;;;;5013095;28;20191;-71
2022/09/03 12:12:21;;;;;;;6.22;5.85;;;25.10;99.20;;;;;;5026473;28;20206;-70
2022/09/03 12:15:13;;;;;;;7.00;6.55;;;24.90;98.70;;;;;;5032260;28;20293;-70
2022/09/03 12:18:17;;;;;;;9.32;8.60;;;24.80;98.90;;;;;;5052613;28;20205;-71
2022/09/03 12:20:59;;;;;;;7.65;6.22;;;24.70;99.90;;;;;;5048879;28;20221;-71
2022/09/03 12:23:47;;;;;;;6.47;5.97;;;24.70;99.90;;;;;;5033426;28;20616;-70
2022/09/03 12:26:16;;;;;;;5.20;4.90;;;24.60;99.90;;;;;;5032215;28;20234;-71
2022/09/03 12:28:45;;;;;;;4.75;4.45;;;24.40;99.90;;;;;;5032443;28;20175;-71
2022/09/03 12:31:28;;;;;;;6.53;6.13;;;24.20;99.90;;;;;;5039794;28;20221;-71
2022/09/03 12:34:06;;;;;;;7.88;7.38;;;24.10;99.90;;;;;;5051910;28;20289;-70
2022/09/03 12:36:41;;;;;;;51.63;47.60;;;23.80;99.90;;;;;;5053088;28;20183;-70
2022/09/03 12:39:17;;;;;;;42.28;38.70;;;23.70;99.90;;;;;;5052396;28;20190;-71
2022/09/03 12:42:08;;;;;;;34.70;32.08;;;23.50;99.90;;;;;;5040708;28;20242;-70
2022/09/03 12:44:34;;;;;;;10.00;9.35;;;23.00;99.90;;;;;;5025882;28;20240;-70
2022/09/03 12:47:05;;;;;;;163.25;155.23;;;22.60;99.90;;;;;;5032166;28;20179;-70
2022/09/03 12:49:45;;;;;;;19.23;18.00;;;22.10;99.90;;;;;;5031572;28;20667;-71
2022/09/03 12:52:23;;;;;;;12.70;12.07;;;21.60;99.90;;;;;;5047046;28;20186;-70
2022/09/03 12:55:00;;;;;;;72.00;68.38;;;21.10;99.90;;;;;;5052642;28;20738;-70
2022/09/03 12:57:32;;;;;;;64.47;61.10;;;20.70;99.90;;;;;;5050489;28;20248;-70
2022/09/03 13:00:01;;;;;;;336.30;317.70;;;20.30;99.90;;;;;;5051107;28;20282;-70
2022/09/03 13:02:36;;;;;;;198.80;188.47;;;19.80;99.90;;;;;;5035507;28;20203;-70
2022/09/03 13:05:04;;;;;;;316.10;297.97;;;19.40;99.90;;;;;;5032697;28;20593;-72
2022/09/03 13:07:38;;;;;;;233.07;219.87;;;18.90;99.90;;;;;;5030697;28;20594;-72